Time;durP1;ratioP1;P1;durP2;ratioP2;P2;SDS_P1;SDS_P2;PMS_P1;PMS_P2;Temp;Humidity;BMP_temperature;BMP_pressure;BME280_temperature;BME280_humidity;BME280_pressure;Samples;Min_cycle;Max_cycle;Signal;HPM_P1;HPM_P2
2022/03/27 00:00:33;;;;;;;3.37;3.17;;;18.50;39.50;;;;;;5009535;28;20215;-58
2022/03/27 00:02:58;;;;;;;3.20;3.00;;;18.50;39.60;;;;;;5007884;28;20286;-59
2022/03/27 00:05:24;;;;;;;3.60;3.40;;;18.50;39.60;;;;;;5008029;28;20258;-60
2022/03/27 00:07:49;;;;;;;3.63;3.30;;;18.50;39.60;;;;;;5008669;28;20222;-57
2022/03/27 00:10:15;;;;;;;3.27;3.07;;;18.50;39.60;;;;;;5009762;28;20739;-58
2022/03/27 00:12:40;;;;;;;2.90;2.70;;;18.60;39.70;;;;;;5010037;28;20711;-58
2022/03/27 00:15:09;;;;;;;3.60;3.30;;;18.50;39.60;;;;;;5009404;28;20227;-58
2022/03/27 00:17:35;;;;;;;3.13;2.93;;;18.50;40.40;;;;;;5009388;28;20319;-57
2022/03/27 00:20:03;;;;;;;2.97;2.77;;;18.50;39.60;;;;;;5007811;28;20427;-57
2022/03/27 00:22:28;;;;;;;2.97;2.80;;;18.50;39.70;;;;;;5008381;28;20449;-58
2022/03/27 00:24:55;;;;;;;4.70;2.87;;;18.50;39.60;;;;;;5008464;28;20430;-59
2022/03/27 00:27:21;;;;;;;2.70;2.50;;;18.50;39.60;;;;;;5009125;28;20240;-58
2022/03/27 00:29:47;;;;;;;2.80;2.70;;;18.50;39.60;;;;;;5009863;28;20448;-57
2022/03/27 00:32:12;;;;;;;3.07;2.87;;;18.50;39.70;;;;;;5008276;28;21033;-58
2022/03/27 00:34:38;;;;;;;3.03;2.83;;;18.50;39.70;;;;;;5008762;28;20232;-59
2022/03/27 00:37:04;;;;;;;3.40;3.20;;;18.50;39.70;;;;;;5009609;28;20234;-59
2022/03/27 00:39:29;;;;;;;2.90;2.70;;;18.50;39.70;;;;;;5008171;28;20591;-57
2022/03/27 00:41:55;;;;;;;3.00;2.80;;;18.50;39.60;;;;;;5007981;28;20243;-59
2022/03/27 00:44:21;;;;;;;2.97;2.77;;;18.50;39.70;;;;;;5008319;28;20223;-60
2022/03/27 00:46:46;;;;;;;8.70;3.50;;;18.50;39.70;;;;;;5007020;28;20224;-58
2022/03/27 00:49:12;;;;;;;3.40;3.20;;;18.50;39.70;;;;;;5007694;28;20314;-58
2022/03/27 00:51:38;;;;;;;3.33;3.03;;;18.50;39.70;;;;;;5008459;28;20305;-58
2022/03/27 00:54:04;;;;;;;2.40;2.30;;;18.50;39.70;;;;;;5004305;28;20228;-58
2022/03/27 00:56:30;;;;;;;3.27;3.07;;;18.50;39.70;;;;;;5009047;28;20224;-58
2022/03/27 00:58:55;;;;;;;2.90;2.50;;;18.50;39.70;;;;;;5007358;28;20420;-59
2022/03/27 01:01:26;;;;;;;3.13;2.83;;;18.50;39.70;;;;;;5008548;28;20739;-58
2022/03/27 01:03:54;;;;;;;3.10;2.90;;;18.50;39.70;;;;;;4992003;28;20580;-58
2022/03/27 01:06:34;;;;;;;3.03;2.83;;;18.50;39.80;;;;;;5008727;28;20507;-59
2022/03/27 01:11:47;;;;;;;2.60;2.40;;;18.50;39.70;;;;;;5009307;28;20545;-58
2022/03/27 01:14:17;;;;;;;5.00;2.57;;;18.50;39.80;;;;;;5007387;28;20532;-60
2022/03/27 01:17:01;;;;;;;2.60;2.40;;;18.50;39.80;;;;;;5008408;28;20228;-58
2022/03/27 01:19:27;;;;;;;3.73;3.10;;;18.50;39.80;;;;;;5006835;28;20812;-58
2022/03/27 01:21:53;;;;;;;2.90;2.70;;;18.50;39.90;;;;;;5008998;28;20457;-58
2022/03/27 01:24:18;;;;;;;2.57;2.37;;;18.50;40.60;;;;;;5008754;28;20780;-58
2022/03/27 01:26:45;;;;;;;2.80;2.70;;;18.50;39.80;;;;;;5009689;28;20622;-58
2022/03/27 01:29:11;;;;;;;2.93;2.73;;;18.50;39.80;;;;;;5007724;28;20234;-58
2022/03/27 01:31:37;;;;;;;2.83;2.63;;;18.50;39.80;;;;;;5008905;28;20531;-57
2022/03/27 01:34:05;;;;;;;2.80;2.60;;;18.50;39.80;;;;;;5006261;28;20435;-58
2022/03/27 01:36:34;;;;;;;2.77;2.57;;;18.50;39.80;;;;;;5008167;28;20477;-58
2022/03/27 01:39:02;;;;;;;2.93;2.73;;;18.50;39.80;;;;;;5007051;28;20485;-58
2022/03/27 01:41:28;;;;;;;2.30;2.20;;;18.50;39.80;;;;;;5010265;28;20470;-58
2022/03/27 01:43:53;;;;;;;2.60;2.43;;;18.50;39.90;;;;;;5011905;28;20492;-58
2022/03/27 01:46:19;;;;;;;2.53;2.33;;;18.50;39.80;;;;;;5012788;28;20231;-58
2022/03/27 01:48:46;;;;;;;2.93;2.73;;;18.50;39.80;;;;;;5010898;28;20212;-59
2022/03/27 01:51:11;;;;;;;2.23;2.13;;;18.50;39.90;;;;;;5011331;28;20482;-60
2022/03/27 01:53:39;;;;;;;2.43;2.33;;;18.50;39.80;;;;;;5011960;28;23672;-57
2022/03/27 01:56:06;;;;;;;2.70;2.53;;;18.50;39.90;;;;;;5009093;28;20239;-58
2022/03/27 01:58:31;;;;;;;2.33;2.23;;;18.50;39.90;;;;;;5011321;28;20444;-59
2022/03/27 02:00:57;;;;;;;2.77;2.57;;;18.50;39.90;;;;;;5012412;28;20443;-58
2022/03/27 02:03:27;;;;;;;2.40;2.30;;;18.50;39.90;;;;;;5010318;28;20278;-59
2022/03/27 02:05:54;;;;;;;2.53;2.43;;;18.50;40.00;;;;;;5010046;28;20227;-58
2022/03/27 02:08:19;;;;;;;2.43;2.33;;;18.50;39.90;;;;;;5012107;28;20461;-60
2022/03/27 02:10:45;;;;;;;2.60;2.40;;;18.50;40.00;;;;;;5012101;28;20454;-58
2022/03/27 02:13:15;;;;;;;3.53;2.50;;;18.50;39.90;;;;;;5012184;28;20247;-58
2022/03/27 02:15:41;;;;;;;2.33;2.23;;;18.50;39.90;;;;;;5009128;28;20717;-58
2022/03/27 02:18:09;;;;;;;2.27;2.17;;;18.50;40.00;;;;;;5010822;28;20526;-58
2022/03/27 02:20:34;;;;;;;2.37;2.17;;;18.50;40.00;;;;;;5009141;28;20428;-57
2022/03/27 02:23:00;;;;;;;2.50;2.30;;;18.50;40.00;;;;;;5009372;28;20499;-58
2022/03/27 02:25:26;;;;;;;2.50;2.40;;;18.50;40.00;;;;;;5009580;28;20303;-58
2022/03/27 02:27:51;;;;;;;2.00;1.90;;;18.50;40.00;;;;;;5011457;28;20231;-59
2022/03/27 02:30:19;;;;;;;2.60;2.40;;;18.50;40.00;;;;;;5009190;28;20215;-58
2022/03/27 02:32:45;;;;;;;2.37;2.27;;;18.50;40.00;;;;;;5011577;28;20239;-58
2022/03/27 02:35:11;;;;;;;2.60;2.40;;;18.50;40.00;;;;;;5010110;28;20996;-58
2022/03/27 02:37:36;;;;;;;2.50;2.40;;;18.50;40.00;;;;;;4993086;28;20216;-58
2022/03/27 02:40:02;;;;;;;3.23;2.47;;;18.50;40.00;;;;;;5011372;28;20294;-58
2022/03/27 02:42:28;;;;;;;2.30;2.10;;;18.50;40.00;;;;;;5008815;28;20219;-58
2022/03/27 02:44:53;;;;;;;2.43;2.23;;;18.50;40.00;;;;;;5011304;28;20452;-58
2022/03/27 02:47:19;;;;;;;2.30;2.20;;;18.50;40.00;;;;;;5011831;28;20219;-58
2022/03/27 02:49:44;;;;;;;2.13;2.03;;;18.50;40.00;;;;;;5012111;28;20684;-59
2022/03/27 02:52:10;;;;;;;3.00;2.80;;;18.50;40.00;;;;;;5009086;28;20248;-58
2022/03/27 02:54:35;;;;;;;1.90;1.80;;;18.50;40.00;;;;;;5010958;28;20635;-59
2022/03/27 02:57:01;;;;;;;2.43;2.30;;;18.50;40.10;;;;;;5009370;28;20557;-58
2022/03/27 02:59:27;;;;;;;2.10;2.00;;;18.50;40.10;;;;;;5011687;28;20239;-58
2022/03/27 03:01:53;;;;;;;2.23;2.13;;;18.50;40.10;;;;;;5011496;28;20311;-59
2022/03/27 03:04:19;;;;;;;2.47;2.00;;;18.50;40.10;;;;;;5009375;28;20253;-58
2022/03/27 03:06:44;;;;;;;2.10;2.00;;;18.50;40.00;;;;;;5011761;28;20470;-58
2022/03/27 03:09:10;;;;;;;2.10;2.00;;;18.50;40.10;;;;;;5006893;28;20670;-58
2022/03/27 03:11:36;;;;;;;2.20;2.10;;;18.40;39.90;;;;;;5010685;28;20759;-58
2022/03/27 03:14:02;;;;;;;2.20;2.10;;;18.50;40.00;;;;;;5010639;28;20756;-59
2022/03/27 03:16:29;;;;;;;1.93;1.83;;;18.40;39.90;;;;;;5010045;28;20436;-58
2022/03/27 03:18:55;;;;;;;2.67;1.90;;;18.50;40.10;;;;;;5009431;28;20213;-59
2022/03/27 03:21:21;;;;;;;2.20;2.10;;;18.50;40.10;;;;;;5010725;28;20454;-58
2022/03/27 03:23:47;;;;;;;1.97;1.87;;;18.40;40.00;;;;;;5009425;28;20224;-58
2022/03/27 03:26:12;;;;;;;3.20;3.00;;;18.40;40.00;;;;;;5010693;28;20432;-58
2022/03/27 03:28:38;;;;;;;2.00;1.90;;;18.40;40.00;;;;;;5007856;28;20236;-58
2022/03/27 03:31:05;;;;;;;1.80;1.70;;;18.40;40.00;;;;;;5010999;28;20274;-58
2022/03/27 03:33:31;;;;;;;2.37;2.27;;;18.50;40.10;;;;;;5010624;28;20219;-59
2022/03/27 03:35:56;;;;;;;2.30;2.20;;;18.50;40.10;;;;;;5010369;28;20452;-58
2022/03/27 03:38:22;;;;;;;2.23;2.13;;;18.40;40.10;;;;;;5008513;28;21012;-57
2022/03/27 03:40:48;;;;;;;2.10;2.00;;;18.40;40.00;;;;;;5009230;28;20222;-59
2022/03/27 03:43:13;;;;;;;2.60;2.40;;;18.40;40.00;;;;;;5010585;28;20302;-59
2022/03/27 03:45:39;;;;;;;2.00;1.90;;;18.40;40.10;;;;;;5008464;28;20670;-60
2022/03/27 03:48:05;;;;;;;2.33;2.13;;;18.50;40.20;;;;;;5009065;28;20224;-59
2022/03/27 03:50:33;;;;;;;2.40;2.20;;;18.40;40.00;;;;;;5007915;28;20219;-58
2022/03/27 03:52:59;;;;;;;2.40;2.20;;;18.40;40.10;;;;;;5006546;28;20612;-60
2022/03/27 03:55:25;;;;;;;2.27;2.17;;;18.40;40.10;;;;;;5007627;28;20423;-59
2022/03/27 03:57:51;;;;;;;3.70;2.30;;;18.40;40.10;;;;;;5008108;28;20465;-57
2022/03/27 04:00:17;;;;;;;2.00;1.90;;;18.50;40.20;;;;;;4991398;28;20427;-58
2022/03/27 04:02:42;;;;;;;2.67;2.47;;;18.50;40.20;;;;;;4994576;28;20231;-59
2022/03/27 04:05:08;;;;;;;2.20;2.10;;;18.50;40.20;;;;;;4992103;28;20252;-59
2022/03/27 04:07:34;;;;;;;1.90;1.80;;;18.40;40.10;;;;;;4993794;28;20236;-58
2022/03/27 04:09:59;;;;;;;2.27;2.17;;;18.40;40.10;;;;;;4990857;28;20345;-58
2022/03/27 04:12:25;;;;;;;1.87;1.77;;;18.40;40.10;;;;;;4991515;28;20232;-58
2022/03/27 04:14:50;;;;;;;1.87;1.77;;;18.40;40.10;;;;;;4991086;28;20642;-58
2022/03/27 04:17:16;;;;;;;2.50;1.90;;;18.40;40.10;;;;;;4993186;28;20224;-59
2022/03/27 04:19:42;;;;;;;2.00;1.90;;;18.40;40.10;;;;;;4991330;28;20229;-57
2022/03/27 04:22:08;;;;;;;2.17;1.97;;;18.40;40.10;;;;;;4992129;28;20236;-58
2022/03/27 04:24:33;;;;;;;2.47;2.37;;;18.40;40.10;;;;;;4989825;28;20311;-58
2022/03/27 04:26:59;;;;;;;2.20;2.10;;;18.40;40.10;;;;;;4989741;28;20235;-58
2022/03/27 04:29:26;;;;;;;2.10;2.00;;;18.40;40.10;;;;;;4991531;28;20678;-58
2022/03/27 04:31:51;;;;;;;1.83;1.70;;;18.40;40.10;;;;;;4989352;28;20240;-58
2022/03/27 04:34:17;;;;;;;1.80;1.70;;;18.40;40.10;;;;;;4990902;28;20512;-57
2022/03/27 04:36:43;;;;;;;1.80;1.70;;;18.40;40.10;;;;;;4990287;28;20290;-60
2022/03/27 04:39:09;;;;;;;2.20;2.10;;;18.40;40.10;;;;;;4990270;28;20673;-58
2022/03/27 04:41:36;;;;;;;2.20;2.00;;;18.40;40.10;;;;;;4989223;28;20224;-57
2022/03/27 04:44:03;;;;;;;1.93;1.83;;;18.40;40.20;;;;;;4991201;28;20516;-57
2022/03/27 04:46:29;;;;;;;1.70;1.60;;;18.40;40.10;;;;;;4989506;28;20425;-57
2022/03/27 04:48:55;;;;;;;2.10;2.00;;;18.40;40.10;;;;;;4990845;28;20458;-58
2022/03/27 04:51:21;;;;;;;2.40;2.20;;;18.40;40.10;;;;;;4990280;28;20557;-58
2022/03/27 04:53:47;;;;;;;2.00;1.90;;;18.40;40.10;;;;;;4988471;28;20528;-60
2022/03/27 04:56:13;;;;;;;1.70;1.60;;;18.40;40.10;;;;;;4993010;28;20453;-58
2022/03/27 04:58:39;;;;;;;2.40;2.30;;;18.40;40.10;;;;;;4991039;28;20895;-58
2022/03/27 05:01:04;;;;;;;1.80;1.70;;;18.40;40.20;;;;;;4989143;28;20220;-56
2022/03/27 05:03:30;;;;;;;2.53;2.10;;;18.40;40.10;;;;;;4989261;28;20282;-58
2022/03/27 05:05:56;;;;;;;1.73;1.63;;;18.40;40.10;;;;;;4988806;28;20669;-59
2022/03/27 05:08:21;;;;;;;2.03;1.93;;;18.40;40.10;;;;;;4989122;28;20461;-58
2022/03/27 05:10:47;;;;;;;2.60;2.10;;;18.40;40.10;;;;;;4989329;28;20236;-58
2022/03/27 05:13:17;;;;;;;2.33;2.23;;;18.40;40.10;;;;;;4989410;28;20232;-58
2022/03/27 05:15:43;;;;;;;1.93;1.83;;;18.50;40.20;;;;;;4987178;28;20598;-59
2022/03/27 05:18:09;;;;;;;2.60;2.40;;;18.50;40.20;;;;;;4989767;28;20421;-59
2022/03/27 05:20:39;;;;;;;2.20;2.10;;;18.50;40.10;;;;;;4990806;28;20465;-58
2022/03/27 05:23:05;;;;;;;2.20;2.10;;;18.50;40.20;;;;;;4988558;28;20233;-58
2022/03/27 05:25:39;;;;;;;3.00;2.80;;;18.50;40.10;;;;;;4990107;28;20421;-60
2022/03/27 05:28:05;;;;;;;2.20;2.10;;;18.50;40.10;;;;;;4990176;28;20232;-58
2022/03/27 05:30:32;;;;;;;2.00;1.90;;;18.50;40.10;;;;;;4993562;28;20435;-57
2022/03/27 05:32:57;;;;;;;2.40;2.30;;;18.50;40.10;;;;;;4993531;28;20531;-58
2022/03/27 05:35:23;;;;;;;1.97;1.87;;;18.50;40.10;;;;;;4989557;28;20425;-58
2022/03/27 05:37:51;;;;;;;2.10;2.00;;;18.50;40.00;;;;;;4988741;28;20228;-59
2022/03/27 05:40:18;;;;;;;2.60;2.40;;;18.50;40.00;;;;;;4989435;28;20223;-58
2022/03/27 05:42:44;;;;;;;2.97;2.77;;;18.50;40.00;;;;;;4990747;28;20880;-58
2022/03/27 05:45:10;;;;;;;2.43;2.33;;;18.50;40.10;;;;;;4990672;28;20428;-58
2022/03/27 05:47:42;;;;;;;2.43;2.23;;;18.50;40.00;;;;;;4988721;28;20510;-58
2022/03/27 05:50:14;;;;;;;2.63;2.47;;;18.50;40.00;;;;;;4990828;28;20443;-59
2022/03/27 05:52:42;;;;;;;2.30;2.20;;;18.50;40.00;;;;;;4987685;28;20791;-59
2022/03/27 05:55:08;;;;;;;3.10;2.90;;;18.50;40.00;;;;;;4990134;28;20459;-58
2022/03/27 05:57:34;;;;;;;2.80;2.60;;;18.50;40.00;;;;;;4988416;28;20751;-58
2022/03/27 05:59:59;;;;;;;2.50;2.40;;;18.60;40.10;;;;;;4988478;28;20431;-58
2022/03/27 06:02:25;;;;;;;2.77;2.57;;;18.60;40.10;;;;;;4990003;28;20328;-58
2022/03/27 06:04:51;;;;;;;2.63;2.43;;;18.50;40.00;;;;;;4989913;28;20218;-59
2022/03/27 06:07:16;;;;;;;3.13;2.93;;;18.60;40.00;;;;;;4990588;28;20216;-59
2022/03/27 06:09:42;;;;;;;2.50;2.30;;;18.60;40.00;;;;;;4989487;28;20692;-58
2022/03/27 06:12:08;;;;;;;2.63;2.43;;;18.60;40.10;;;;;;4992090;28;20236;-59
2022/03/27 06:14:34;;;;;;;2.90;2.70;;;18.60;40.00;;;;;;4991034;28;20224;-59
2022/03/27 06:17:00;;;;;;;2.87;2.67;;;18.60;40.00;;;;;;4990376;28;20425;-58
2022/03/27 06:19:26;;;;;;;2.80;2.60;;;18.60;40.00;;;;;;4974866;28;20233;-58
2022/03/27 06:21:52;;;;;;;2.93;2.73;;;18.60;40.00;;;;;;4990979;28;20336;-58
2022/03/27 06:24:18;;;;;;;3.00;2.80;;;18.60;40.00;;;;;;4989554;28;20417;-58
2022/03/27 06:26:43;;;;;;;2.90;2.70;;;18.60;40.00;;;;;;4990870;28;20298;-58
2022/03/27 06:29:09;;;;;;;2.77;2.57;;;18.60;40.30;;;;;;4995721;28;20235;-58
2022/03/27 06:31:36;;;;;;;2.77;2.57;;;18.60;40.10;;;;;;4994045;28;20235;-58
2022/03/27 06:34:01;;;;;;;3.53;3.30;;;18.60;40.00;;;;;;4991245;28;20234;-58
2022/03/27 06:36:27;;;;;;;2.73;2.53;;;18.60;40.00;;;;;;4994332;28;20446;-59
2022/03/27 06:38:53;;;;;;;3.10;2.90;;;18.60;40.10;;;;;;4992727;28;20323;-59
2022/03/27 06:41:18;;;;;;;2.93;2.80;;;18.60;40.00;;;;;;4992032;28;20236;-58
2022/03/27 06:43:44;;;;;;;2.90;2.70;;;18.60;40.00;;;;;;4992991;28;20223;-59
2022/03/27 06:46:15;;;;;;;2.50;2.30;;;18.60;40.00;;;;;;4992160;28;20307;-59
2022/03/27 06:48:40;;;;;;;2.90;2.70;;;18.60;40.00;;;;;;4991866;28;20568;-58
2022/03/27 06:51:06;;;;;;;3.03;2.83;;;18.60;40.00;;;;;;4994106;28;20440;-58
2022/03/27 06:53:32;;;;;;;2.80;2.60;;;18.60;40.00;;;;;;4990927;28;20220;-58
2022/03/27 06:55:57;;;;;;;2.60;2.40;;;18.60;40.00;;;;;;4996949;28;20639;-58
2022/03/27 06:58:23;;;;;;;2.90;2.70;;;18.60;40.00;;;;;;4991633;28;20290;-58
2022/03/27 07:03:32;;;;;;;3.23;3.03;;;18.60;40.00;;;;;;4992315;28;20247;-58
2022/03/27 07:05:58;;;;;;;2.77;2.57;;;18.60;39.90;;;;;;4992218;28;20931;-57
2022/03/27 07:08:24;;;;;;;3.27;3.07;;;18.60;40.00;;;;;;4991764;28;20216;-60
2022/03/27 07:10:50;;;;;;;2.90;2.70;;;18.60;40.00;;;;;;4991128;28;20233;-58
2022/03/27 07:13:18;;;;;;;3.10;2.90;;;18.60;40.00;;;;;;4991921;28;20244;-57
2022/03/27 07:15:46;;;;;;;2.83;2.63;;;18.60;39.90;;;;;;4990917;28;20433;-61
2022/03/27 07:18:13;;;;;;;3.03;2.80;;;18.70;40.00;;;;;;4993324;28;20502;-59
2022/03/27 07:20:45;;;;;;;3.30;3.10;;;18.60;39.90;;;;;;4991017;28;20561;-58
2022/03/27 07:23:13;;;;;;;3.30;3.10;;;18.60;39.90;;;;;;4991648;28;20867;-58
2022/03/27 07:25:42;;;;;;;3.40;3.20;;;18.60;39.90;;;;;;4989276;28;20475;-58
2022/03/27 07:28:08;;;;;;;3.30;3.10;;;18.60;39.90;;;;;;4992531;28;20421;-57
2022/03/27 07:30:35;;;;;;;3.10;2.90;;;18.60;39.90;;;;;;4992757;28;20660;-58
2022/03/27 07:33:02;;;;;;;4.70;3.10;;;18.70;40.00;;;;;;4992298;28;20491;-57
2022/03/27 07:35:30;;;;;;;3.33;3.00;;;18.60;39.90;;;;;;4992075;28;21161;-58
2022/03/27 07:37:56;;;;;;;3.07;2.87;;;18.70;40.00;;;;;;4974582;28;20914;-58
2022/03/27 07:40:22;;;;;;;3.60;3.30;;;18.60;39.90;;;;;;4992053;28;20505;-57
2022/03/27 07:42:50;;;;;;;3.47;2.60;;;18.60;39.90;;;;;;4991969;28;20461;-59
2022/03/27 07:45:21;;;;;;;3.20;3.00;;;18.60;40.00;;;;;;4994729;28;20458;-57
2022/03/27 07:47:47;;;;;;;2.90;2.70;;;18.60;39.90;;;;;;4991479;28;20461;-58
2022/03/27 07:50:13;;;;;;;3.37;3.17;;;18.60;40.00;;;;;;4994937;28;20797;-58
2022/03/27 07:52:39;;;;;;;3.20;3.00;;;18.60;40.00;;;;;;4992424;28;20440;-57
2022/03/27 07:55:06;;;;;;;3.33;3.07;;;18.60;40.00;;;;;;4991836;28;20801;-57
2022/03/27 07:57:32;;;;;;;3.03;2.83;;;18.60;40.00;;;;;;4990729;28;20828;-57
2022/03/27 07:59:58;;;;;;;3.60;3.30;;;18.60;40.00;;;;;;4992767;28;20520;-57
2022/03/27 08:02:24;;;;;;;3.90;3.40;;;18.60;40.00;;;;;;4991350;28;20483;-58
2022/03/27 08:04:50;;;;;;;2.97;2.77;;;18.60;40.00;;;;;;4992646;28;20232;-58
2022/03/27 08:07:16;;;;;;;4.00;2.90;;;18.60;40.00;;;;;;4992605;28;20634;-57
2022/03/27 08:09:42;;;;;;;4.33;3.87;;;18.60;40.00;;;;;;4991515;28;20237;-57
2022/03/27 08:12:09;;;;;;;3.00;2.80;;;18.60;40.00;;;;;;4991633;28;20437;-57
2022/03/27 08:14:43;;;;;;;3.67;3.30;;;18.70;40.10;;;;;;4993114;28;20432;-58
2022/03/27 08:17:09;;;;;;;3.37;3.17;;;18.70;40.10;;;;;;4990092;28;20910;-57
2022/03/27 08:19:35;;;;;;;4.03;3.73;;;18.70;40.10;;;;;;4993628;28;20468;-58
2022/03/27 08:22:01;;;;;;;3.13;2.93;;;18.70;40.10;;;;;;4998305;28;20514;-57
2022/03/27 08:24:28;;;;;;;3.63;3.27;;;18.70;40.00;;;;;;5007740;28;20224;-58
2022/03/27 08:26:56;;;;;;;4.47;3.30;;;18.70;40.00;;;;;;5009704;28;20536;-58
2022/03/27 08:29:27;;;;;;;3.30;3.10;;;18.70;40.00;;;;;;5008604;28;20888;-60
2022/03/27 08:31:53;;;;;;;3.13;2.87;;;18.70;40.00;;;;;;5009275;28;20515;-57
2022/03/27 08:34:20;;;;;;;3.13;2.83;;;18.70;40.10;;;;;;5008459;28;20456;-61
2022/03/27 08:36:47;;;;;;;3.03;2.77;;;18.70;40.00;;;;;;5009627;28;20831;-58
2022/03/27 08:39:13;;;;;;;3.50;2.97;;;18.70;40.00;;;;;;5009623;28;20428;-58
2022/03/27 08:41:43;;;;;;;4.03;3.47;;;18.70;40.00;;;;;;5008097;28;20958;-58
2022/03/27 08:44:14;;;;;;;3.50;3.20;;;18.70;40.00;;;;;;5009486;28;20453;-58
2022/03/27 08:46:41;;;;;;;3.60;3.30;;;18.70;40.00;;;;;;5008476;28;20786;-58
2022/03/27 08:49:39;;;;;;;2.90;2.70;;;18.70;40.10;;;;;;5005831;28;20522;-60
2022/03/27 08:52:34;;;;;;;3.13;2.93;;;18.70;40.10;;;;;;4993064;28;20807;-58
2022/03/27 08:55:06;;;;;;;4.67;3.20;;;18.70;40.10;;;;;;5006716;28;20451;-57
2022/03/27 08:57:50;;;;;;;3.43;3.10;;;18.70;40.10;;;;;;5007050;28;20862;-57
2022/03/27 09:00:19;;;;;;;3.60;3.40;;;18.70;40.10;;;;;;5005839;28;20528;-60
2022/03/27 09:02:45;;;;;;;2.40;2.30;;;18.70;40.20;;;;;;5006698;28;20462;-58
2022/03/27 09:05:11;;;;;;;3.40;3.10;;;18.70;40.10;;;;;;5006925;28;20432;-59
2022/03/27 09:07:37;;;;;;;2.90;2.60;;;18.70;40.20;;;;;;5007650;28;20245;-59
2022/03/27 09:10:10;;;;;;;3.70;3.40;;;18.70;41.00;;;;;;5006958;28;20956;-58
2022/03/27 09:12:36;;;;;;;2.63;2.43;;;18.70;40.20;;;;;;5005377;28;20232;-57
2022/03/27 09:15:07;;;;;;;2.73;2.53;;;18.70;40.20;;;;;;5006840;28;20842;-58
2022/03/27 09:17:32;;;;;;;3.10;2.90;;;18.60;40.10;;;;;;5004931;28;20445;-59
2022/03/27 09:19:58;;;;;;;3.00;2.70;;;18.60;40.10;;;;;;5006923;28;20439;-58
2022/03/27 09:22:34;;;;;;;2.77;2.57;;;18.70;40.20;;;;;;5005969;28;20223;-58
2022/03/27 09:25:04;;;;;;;3.10;2.90;;;18.60;40.10;;;;;;5007610;28;20280;-57
2022/03/27 09:27:36;;;;;;;3.10;2.90;;;18.60;40.20;;;;;;5007088;28;20471;-57
2022/03/27 09:30:07;;;;;;;3.10;2.90;;;18.60;40.10;;;;;;5008168;28;20511;-57
2022/03/27 09:32:38;;;;;;;3.17;2.97;;;18.60;40.20;;;;;;5006097;28;20447;-59
2022/03/27 09:35:08;;;;;;;2.67;2.47;;;18.60;40.10;;;;;;4989466;28;20981;-57
2022/03/27 09:37:52;;;;;;;2.80;2.60;;;18.60;40.10;;;;;;5007407;28;20439;-59
2022/03/27 09:40:18;;;;;;;3.20;2.97;;;18.60;40.90;;;;;;5007418;28;20431;-58
2022/03/27 09:42:44;;;;;;;6.13;3.07;;;18.60;40.20;;;;;;5002797;28;20425;-59
2022/03/27 09:45:21;;;;;;;3.60;3.13;;;18.60;40.20;;;;;;5007093;28;20220;-58
2022/03/27 09:47:49;;;;;;;2.97;2.77;;;18.60;40.20;;;;;;5007436;28;20433;-59
2022/03/27 09:50:38;;;;;;;2.83;2.50;;;18.60;40.30;;;;;;5004648;28;20461;-58
2022/03/27 09:53:27;;;;;;;3.17;2.57;;;18.60;40.20;;;;;;5005939;28;20440;-57
2022/03/27 09:55:53;;;;;;;3.03;2.77;;;18.60;40.30;;;;;;4989029;28;20453;-58
2022/03/27 09:58:47;;;;;;;2.93;2.70;;;18.60;40.30;;;;;;5005771;28;20445;-58
2022/03/27 10:01:18;;;;;;;6.10;3.37;;;18.60;40.30;;;;;;5005891;28;20560;-58
2022/03/27 10:04:13;;;;;;;5.00;3.63;;;18.60;40.30;;;;;;5009248;28;20470;-59
2022/03/27 10:06:40;;;;;;;3.20;2.90;;;18.60;40.30;;;;;;5008790;28;20555;-60
2022/03/27 10:09:13;;;;;;;3.83;2.83;;;18.60;40.30;;;;;;5010527;28;20437;-61
2022/03/27 10:11:41;;;;;;;4.77;3.10;;;18.60;40.40;;;;;;5007205;28;20979;-59
2022/03/27 10:14:07;;;;;;;3.30;3.10;;;18.60;40.50;;;;;;5009950;28;20427;-59
2022/03/27 10:16:42;;;;;;;3.50;3.20;;;18.60;40.50;;;;;;5008996;28;20969;-58
2022/03/27 10:19:32;;;;;;;3.37;3.17;;;18.60;40.40;;;;;;5010722;28;20439;-58
2022/03/27 10:21:59;;;;;;;3.13;2.93;;;18.60;40.40;;;;;;5010930;28;20464;-58
2022/03/27 10:24:30;;;;;;;2.70;2.40;;;18.60;40.50;;;;;;5009309;28;20490;-59
2022/03/27 10:27:01;;;;;;;4.40;2.70;;;18.60;40.50;;;;;;5008973;28;20460;-58
2022/03/27 10:29:27;;;;;;;3.03;2.30;;;18.60;40.50;;;;;;5010722;28;20458;-60
2022/03/27 10:31:53;;;;;;;3.00;2.80;;;18.60;40.50;;;;;;5009272;28;20943;-58
2022/03/27 10:34:20;;;;;;;3.07;2.87;;;18.60;40.50;;;;;;5010072;28;20448;-58
2022/03/27 10:37:00;;;;;;;4.17;3.77;;;18.60;40.60;;;;;;5008892;28;20458;-58
2022/03/27 10:39:44;;;;;;;3.23;3.03;;;18.60;40.60;;;;;;5008790;28;20544;-58
2022/03/27 10:42:19;;;;;;;2.73;2.53;;;18.60;40.60;;;;;;5005321;28;20466;-58
2022/03/27 10:45:00;;;;;;;3.67;3.00;;;18.60;40.60;;;;;;5007723;28;20893;-58
2022/03/27 10:47:28;;;;;;;5.50;2.90;;;18.60;40.60;;;;;;5007608;28;20651;-59
2022/03/27 10:50:06;;;;;;;2.57;2.37;;;18.60;40.60;;;;;;5008317;28;20481;-58
2022/03/27 10:52:33;;;;;;;5.00;3.70;;;18.50;40.50;;;;;;5007943;28;20446;-58
2022/03/27 10:55:06;;;;;;;3.30;3.00;;;18.60;40.70;;;;;;5010572;28;20440;-58
2022/03/27 10:57:37;;;;;;;4.00;3.00;;;18.50;40.60;;;;;;5008347;28;20435;-58
2022/03/27 11:00:08;;;;;;;3.30;3.10;;;18.50;40.50;;;;;;5007763;28;20436;-59
2022/03/27 11:02:44;;;;;;;3.60;3.30;;;18.50;40.60;;;;;;5008681;28;20444;-58
2022/03/27 11:05:31;;;;;;;3.07;2.87;;;18.50;40.50;;;;;;5008085;28;20900;-59
2022/03/27 11:08:18;;;;;;;3.20;3.00;;;18.50;40.50;;;;;;5009026;28;20462;-60
2022/03/27 11:10:51;;;;;;;3.83;3.40;;;18.50;40.60;;;;;;5008714;28;20443;-57
2022/03/27 11:13:29;;;;;;;4.43;3.33;;;18.50;40.60;;;;;;5004844;28;20432;-60
2022/03/27 11:16:01;;;;;;;3.50;3.20;;;18.50;40.60;;;;;;5009185;28;20558;-58
2022/03/27 11:18:35;;;;;;;4.20;3.90;;;18.50;40.60;;;;;;5009595;28;20491;-59
2022/03/27 11:21:01;;;;;;;3.20;3.00;;;18.50;40.60;;;;;;5010024;28;20431;-58
2022/03/27 11:23:28;;;;;;;3.17;2.97;;;18.50;40.70;;;;;;5009918;28;20475;-58
2022/03/27 11:25:55;;;;;;;4.50;4.10;;;18.50;40.70;;;;;;5007923;28;20504;-60
2022/03/27 11:28:21;;;;;;;4.57;3.67;;;18.50;40.70;;;;;;5009277;28;20456;-58
2022/03/27 11:30:49;;;;;;;3.20;3.00;;;18.50;40.70;;;;;;5009614;28;20474;-58
2022/03/27 11:33:23;;;;;;;4.10;3.80;;;18.50;40.70;;;;;;5008031;28;20465;-58
2022/03/27 11:36:00;;;;;;;3.67;3.10;;;18.50;40.70;;;;;;5009157;28;20462;-59
2022/03/27 11:38:33;;;;;;;3.60;3.30;;;18.50;40.70;;;;;;5008379;28;20492;-57
2022/03/27 11:41:21;;;;;;;3.70;3.40;;;18.50;40.70;;;;;;5005066;28;20524;-59
2022/03/27 11:43:47;;;;;;;4.33;3.93;;;18.50;40.70;;;;;;5008946;28;20926;-58
2022/03/27 11:46:31;;;;;;;6.53;3.57;;;18.50;40.70;;;;;;5007815;28;20502;-59
2022/03/27 11:49:00;;;;;;;5.70;3.97;;;18.50;40.70;;;;;;5005587;28;20216;-59
2022/03/27 11:51:27;;;;;;;4.27;3.87;;;18.50;40.70;;;;;;5006839;28;20459;-57
2022/03/27 11:53:55;;;;;;;7.90;4.37;;;18.50;40.70;;;;;;5005739;28;20424;-59
2022/03/27 11:56:21;;;;;;;6.17;3.70;;;18.50;40.70;;;;;;4988190;28;20537;-58
2022/03/27 11:59:03;;;;;;;3.97;3.27;;;18.50;40.70;;;;;;5008741;28;20507;-58
2022/03/27 12:01:29;;;;;;;3.33;3.03;;;18.50;40.80;;;;;;5007252;28;20420;-58
2022/03/27 12:03:59;;;;;;;3.60;3.30;;;18.50;40.70;;;;;;5004990;28;20420;-58
2022/03/27 12:06:29;;;;;;;6.90;3.97;;;18.50;40.70;;;;;;4991790;28;20228;-58
2022/03/27 12:08:55;;;;;;;4.27;3.47;;;18.60;40.80;;;;;;5007016;28;20482;-59
2022/03/27 12:11:23;;;;;;;3.53;3.23;;;18.60;40.90;;;;;;5008236;28;20440;-58
2022/03/27 12:13:49;;;;;;;7.20;3.80;;;18.60;40.80;;;;;;5006479;28;20472;-59
2022/03/27 12:16:23;;;;;;;3.60;3.40;;;18.50;40.70;;;;;;5008944;28;20436;-58
2022/03/27 12:18:49;;;;;;;4.20;3.80;;;18.50;40.80;;;;;;5007409;28;20453;-59
2022/03/27 12:21:20;;;;;;;5.00;3.40;;;18.60;40.80;;;;;;5008763;28;20481;-58
2022/03/27 12:23:51;;;;;;;4.30;3.90;;;18.60;40.80;;;;;;5007229;28;20420;-57
2022/03/27 12:29:40;;;;;;;4.13;3.73;;;18.60;41.00;;;;;;5005901;28;20447;-58
2022/03/27 12:32:05;;;;;;;5.73;3.87;;;18.60;40.90;;;;;;5008274;28;20444;-58
2022/03/27 12:34:32;;;;;;;3.43;3.20;;;18.60;40.80;;;;;;5007117;28;20465;-57
2022/03/27 12:37:21;;;;;;;3.87;3.53;;;18.60;40.70;;;;;;5008112;28;20303;-60
2022/03/27 12:39:50;;;;;;;3.50;3.30;;;18.70;40.70;;;;;;5007448;28;20519;-58
2022/03/27 12:42:39;;;;;;;4.10;3.47;;;18.70;40.60;;;;;;5007999;28;20427;-59
2022/03/27 12:45:14;;;;;;;4.13;3.43;;;18.70;40.50;;;;;;5007688;28;20542;-58
2022/03/27 12:47:54;;;;;;;3.70;3.47;;;18.70;40.50;;;;;;5006439;28;20420;-59
2022/03/27 12:50:25;;;;;;;3.83;3.60;;;18.70;40.50;;;;;;5006745;28;20416;-58
2022/03/27 12:53:03;;;;;;;3.67;3.30;;;18.70;40.60;;;;;;5006939;28;20441;-59
2022/03/27 12:55:42;;;;;;;3.70;3.50;;;18.80;40.60;;;;;;5008001;28;20543;-57
2022/03/27 12:58:08;;;;;;;4.97;3.50;;;18.80;40.60;;;;;;5005832;28;20458;-58
2022/03/27 13:00:34;;;;;;;3.37;3.17;;;18.70;40.50;;;;;;5008013;28;20968;-57
2022/03/27 13:03:22;;;;;;;4.30;4.00;;;18.80;40.50;;;;;;5007636;28;20232;-59